Time;durP1;ratioP1;P1;durP2;ratioP2;P2;SDS_P1;SDS_P2;PMS_P1;PMS_P2;Temp;Humidity;BMP_temperature;BMP_pressure;BME280_temperature;BME280_humidity;BME280_pressure;Samples;Min_cycle;Max_cycle;Signal;HPM_P1;HPM_P2
2023/05/29 00:01:24;;;;;;;0.10;0.10;;;;;;;;;;5045467;28;20244;-77
2023/05/29 00:03:50;;;;;;;0.03;0.03;;;;;;;;;;5052331;28;20204;-77
2023/05/29 00:06:17;;;;;;;0.10;0.10;;;;;;;;;;5045335;28;20247;-76
2023/05/29 00:08:43;;;;;;;0.10;0.10;;;;;;;;;;5052937;28;20381;-76
2023/05/29 00:11:09;;;;;;;0.10;0.10;;;;;;;;;;5044244;28;20250;-76
2023/05/29 00:13:36;;;;;;;0.10;0.10;;;;;;;;;;5053592;28;20217;-76
2023/05/29 00:16:04;;;;;;;0.05;0.05;;;;;;;;;;5043069;28;20307;-76
2023/05/29 00:18:31;;;;;;;0.10;0.10;;;;;;;;;;5054437;28;20215;-76
2023/05/29 00:20:57;;;;;;;0.03;0.03;;;;;;;;;;5042423;28;20464;-76
2023/05/29 00:23:24;;;;;;;0.10;0.10;;;;;;;;;;5055109;28;20562;-76
2023/05/29 00:25:50;;;;;;;0.08;0.08;;;;;;;;;;5041431;28;20441;-76
2023/05/29 00:28:16;;;;;;;0.08;0.08;;;;;;;;;;5055737;28;20450;-76
2023/05/29 00:30:43;;;;;;;0.00;0.00;;;;;;;;;;5040340;28;20310;-76
2023/05/29 00:33:10;;;;;;;0.10;0.10;;;;;;;;;;5056720;28;20319;-76
2023/05/29 00:35:37;;;;;;;0.10;0.10;;;;;;;;;;5039428;28;20243;-76
2023/05/29 00:38:03;;;;;;;0.10;0.10;;;;;;;;;;5057276;28;20204;-76
2023/05/29 00:40:30;;;;;;;0.10;0.10;;;;;;;;;;5037923;28;20273;-76
2023/05/29 00:42:56;;;;;;;0.10;0.10;;;;;;;;;;5057953;28;20272;-76
2023/05/29 00:45:22;;;;;;;0.10;0.10;;;;;;;;;;5037433;28;20212;-76
2023/05/29 00:47:49;;;;;;;0.10;0.10;;;;;;;;;;5058835;28;20271;-76
2023/05/29 00:50:17;;;;;;;0.10;0.10;;;;;;;;;;5036596;28;20211;-76
2023/05/29 00:52:44;;;;;;;0.10;0.10;;;;;;;;;;5059827;28;20544;-76
2023/05/29 00:55:10;;;;;;;0.10;0.10;;;;;;;;;;5036026;28;20540;-76
2023/05/29 00:57:37;;;;;;;0.10;0.10;;;;;;;;;;5060180;28;20262;-76
2023/05/29 01:00:06;;;;;;;0.33;0.33;;;;;;;;;;5045578;28;20291;-76
2023/05/29 01:02:32;;;;;;;0.03;0.03;;;;;;;;;;5033930;28;20284;-76
2023/05/29 01:04:59;;;;;;;0.10;0.10;;;;;;;;;;5045009;28;20270;-76
2023/05/29 01:07:26;;;;;;;0.10;0.10;;;;;;;;;;5069352;28;20239;-76
2023/05/29 01:09:53;;;;;;;0.10;0.10;;;;;;;;;;5065419;28;20277;-76
2023/05/29 01:12:27;;;;;;;0.10;0.10;;;;;;;;;;5070570;28;20308;-76
2023/05/29 01:15:04;;;;;;;0.10;0.10;;;;;;;;;;5065300;28;20212;-76
2023/05/29 01:17:34;;;;;;;0.15;0.15;;;;;;;;;;5070133;28;20249;-76
2023/05/29 01:20:05;;;;;;;0.08;0.08;;;;;;;;;;5065247;28;20501;-76
2023/05/29 01:22:41;;;;;;;0.10;0.10;;;;;;;;;;5070122;28;20307;-76
2023/05/29 01:25:12;;;;;;;0.05;0.05;;;;;;;;;;5061356;28;20284;-75
2023/05/29 01:27:40;;;;;;;2.13;2.07;;;;;;;;;;5079706;28;20499;-76
2023/05/29 01:30:08;;;;;;;0.10;0.10;;;;;;;;;;5064393;28;20421;-76
2023/05/29 01:32:35;;;;;;;0.00;0.00;;;;;;;;;;5053240;28;20307;-76
2023/05/29 01:35:01;;;;;;;0.10;0.10;;;;;;;;;;5064897;28;20278;-76
2023/05/29 01:37:28;;;;;;;0.10;0.10;;;;;;;;;;5069747;28;20572;-76
2023/05/29 01:39:54;;;;;;;0.10;0.10;;;;;;;;;;5064850;28;20219;-76
2023/05/29 01:42:21;;;;;;;0.10;0.10;;;;;;;;;;5069654;28;20299;-76
2023/05/29 01:44:49;;;;;;;0.37;0.37;;;;;;;;;;5064645;28;20238;-76
2023/05/29 01:47:16;;;;;;;0.10;0.10;;;;;;;;;;5069472;28;20329;-76
2023/05/29 01:49:42;;;;;;;0.10;0.10;;;;;;;;;;5064650;28;20199;-76
2023/05/29 01:52:09;;;;;;;0.10;0.10;;;;;;;;;;5068749;28;20310;-76
2023/05/29 01:54:35;;;;;;;0.10;0.10;;;;;;;;;;5064427;28;20245;-76
2023/05/29 01:57:02;;;;;;;0.10;0.10;;;;;;;;;;5068568;28;20306;-76
2023/05/29 01:59:28;;;;;;;0.10;0.10;;;;;;;;;;5065027;28;20265;-76
2023/05/29 02:01:56;;;;;;;0.10;0.10;;;;;;;;;;5067571;28;20304;-76
2023/05/29 02:04:23;;;;;;;0.07;0.07;;;;;;;;;;5065729;28;20240;-76
2023/05/29 02:06:49;;;;;;;0.10;0.10;;;;;;;;;;5066792;28;20585;-76
2023/05/29 02:09:16;;;;;;;0.03;0.03;;;;;;;;;;5066515;28;20210;-76
2023/05/29 02:11:45;;;;;;;0.07;0.07;;;;;;;;;;5066032;28;20497;-76
2023/05/29 02:14:11;;;;;;;0.10;0.10;;;;;;;;;;5066867;28;20241;-76
2023/05/29 02:16:40;;;;;;;0.10;0.10;;;;;;;;;;5065029;28;20259;-76
2023/05/29 02:19:08;;;;;;;0.10;0.10;;;;;;;;;;5067335;28;20243;-76
2023/05/29 02:21:35;;;;;;;0.00;0.00;;;;;;;;;;5064497;28;20234;-76
2023/05/29 02:24:01;;;;;;;0.10;0.10;;;;;;;;;;5068190;28;20253;-76
2023/05/29 02:26:28;;;;;;;0.10;0.10;;;;;;;;;;5063987;28;20511;-76
2023/05/29 02:28:54;;;;;;;0.10;0.10;;;;;;;;;;5068495;28;20501;-76
2023/05/29 02:31:20;;;;;;;0.10;0.10;;;;;;;;;;5062956;28;20475;-76
2023/05/29 02:33:47;;;;;;;0.00;0.00;;;;;;;;;;5069479;28;20438;-76
2023/05/29 02:36:16;;;;;;;0.10;0.10;;;;;;;;;;5061961;28;20245;-76
2023/05/29 02:38:42;;;;;;;0.10;0.10;;;;;;;;;;5070388;28;20249;-76
2023/05/29 02:41:08;;;;;;;0.10;0.10;;;;;;;;;;5061218;28;20299;-76
2023/05/29 02:43:35;;;;;;;0.10;0.10;;;;;;;;;;5070799;28;20245;-76
2023/05/29 02:46:01;;;;;;;0.10;0.10;;;;;;;;;;5060191;28;20250;-76
2023/05/29 02:48:29;;;;;;;0.10;0.10;;;;;;;;;;5071856;28;20207;-76
2023/05/29 02:50:55;;;;;;;0.00;0.00;;;;;;;;;;5059319;28;20349;-76
2023/05/29 02:53:23;;;;;;;0.10;0.10;;;;;;;;;;5072862;28;20522;-76
2023/05/29 02:55:50;;;;;;;0.10;0.10;;;;;;;;;;5058888;28;20302;-76
2023/05/29 02:58:17;;;;;;;0.00;0.00;;;;;;;;;;5072957;28;20232;-76
2023/05/29 03:00:43;;;;;;;0.10;0.10;;;;;;;;;;5057540;28;20238;-76
2023/05/29 03:03:10;;;;;;;0.10;0.10;;;;;;;;;;5076711;28;20205;-76
2023/05/29 03:05:36;;;;;;;0.10;0.10;;;;;;;;;;5060948;28;20265;-76
2023/05/29 03:08:02;;;;;;;0.00;0.00;;;;;;;;;;5078850;28;20273;-76
2023/05/29 03:10:30;;;;;;;0.10;0.10;;;;;;;;;;5059758;28;20309;-76
2023/05/29 03:12:56;;;;;;;0.10;0.10;;;;;;;;;;5079780;28;20209;-76
2023/05/29 03:15:23;;;;;;;0.10;0.10;;;;;;;;;;5058833;28;20236;-76
2023/05/29 03:17:49;;;;;;;0.10;0.10;;;;;;;;;;5080455;28;20261;-76
2023/05/29 03:20:16;;;;;;;0.00;0.00;;;;;;;;;;5057818;28;20212;-76
2023/05/29 03:22:42;;;;;;;0.10;0.10;;;;;;;;;;5081525;28;20215;-76
2023/05/29 03:25:10;;;;;;;0.10;0.10;;;;;;;;;;5057343;28;20210;-75
2023/05/29 03:27:38;;;;;;;0.10;0.10;;;;;;;;;;5081977;28;20296;-77
2023/05/29 03:30:04;;;;;;;0.10;0.10;;;;;;;;;;5066709;28;20244;-76
2023/05/29 03:32:30;;;;;;;0.10;0.10;;;;;;;;;;5072125;28;20240;-76
2023/05/29 03:34:57;;;;;;;0.10;0.10;;;;;;;;;;5066683;28;20214;-76
2023/05/29 03:37:23;;;;;;;0.10;0.10;;;;;;;;;;5072383;28;20274;-76
2023/05/29 03:39:50;;;;;;;0.10;0.10;;;;;;;;;;5066882;28;20249;-76
2023/05/29 03:42:16;;;;;;;0.10;0.10;;;;;;;;;;5072040;28;20256;-76
2023/05/29 03:44:44;;;;;;;0.10;0.10;;;;;;;;;;5066528;28;20211;-76
2023/05/29 03:47:11;;;;;;;0.03;0.03;;;;;;;;;;5071765;28;20304;-76
2023/05/29 03:49:37;;;;;;;0.10;0.10;;;;;;;;;;5066791;28;20205;-76
2023/05/29 03:52:04;;;;;;;0.10;0.10;;;;;;;;;;5071341;28;20235;-76
2023/05/29 03:54:30;;;;;;;0.10;0.10;;;;;;;;;;5067007;28;20244;-76
2023/05/29 03:56:57;;;;;;;0.10;0.10;;;;;;;;;;5070155;28;20240;-76
2023/05/29 03:59:23;;;;;;;0.10;0.10;;;;;;;;;;5067693;28;20226;-76
2023/05/29 04:01:51;;;;;;;0.00;0.00;;;;;;;;;;5068859;28;20304;-76
2023/05/29 04:04:17;;;;;;;2.13;2.13;;;;;;;;;;5068336;28;20462;-76
2023/05/29 04:06:44;;;;;;;0.10;0.10;;;;;;;;;;5068418;28;20486;-76
2023/05/29 04:09:11;;;;;;;0.10;0.10;;;;;;;;;;5069253;28;20206;-76
2023/05/29 04:11:38;;;;;;;0.10;0.10;;;;;;;;;;5067494;28;20237;-76
2023/05/29 04:14:05;;;;;;;0.10;0.10;;;;;;;;;;5069166;28;20204;-76
2023/05/29 04:16:31;;;;;;;0.10;0.10;;;;;;;;;;5066715;28;20512;-76
2023/05/29 04:18:59;;;;;;;0.10;0.10;;;;;;;;;;5070681;28;20209;-76
2023/05/29 04:21:25;;;;;;;0.10;0.10;;;;;;;;;;5065585;28;20294;-76
2023/05/29 04:23:52;;;;;;;0.10;0.10;;;;;;;;;;5071136;28;20238;-76
2023/05/29 04:26:20;;;;;;;0.10;0.10;;;;;;;;;;5064912;28;20295;-76
2023/05/29 04:28:46;;;;;;;0.10;0.10;;;;;;;;;;5071772;28;20273;-76
2023/05/29 04:31:14;;;;;;;0.10;0.10;;;;;;;;;;5064043;28;20236;-76
2023/05/29 04:33:41;;;;;;;0.10;0.10;;;;;;;;;;5072434;28;20277;-76
2023/05/29 04:36:10;;;;;;;0.10;0.10;;;;;;;;;;5063306;28;20582;-77
2023/05/29 04:38:37;;;;;;;0.10;0.10;;;;;;;;;;5072827;28;20234;-76
2023/05/29 04:41:03;;;;;;;0.10;0.10;;;;;;;;;;5062401;28;20312;-76
2023/05/29 04:43:30;;;;;;;0.10;0.10;;;;;;;;;;5073994;28;20457;-76
2023/05/29 04:45:58;;;;;;;0.10;0.10;;;;;;;;;;5061565;28;20359;-76
2023/05/29 04:48:24;;;;;;;0.10;0.10;;;;;;;;;;5074294;28;20279;-76
2023/05/29 04:50:51;;;;;;;0.10;0.10;;;;;;;;;;5060751;28;20250;-76
2023/05/29 04:53:19;;;;;;;0.10;0.10;;;;;;;;;;5075070;28;20236;-76
2023/05/29 04:55:45;;;;;;;0.50;0.50;;;;;;;;;;5060080;28;20488;-76
2023/05/29 04:58:12;;;;;;;0.10;0.10;;;;;;;;;;5075659;28;20232;-76
2023/05/29 05:00:39;;;;;;;0.10;0.10;;;;;;;;;;5058889;28;20599;-76
2023/05/29 05:03:05;;;;;;;0.10;0.10;;;;;;;;;;5076640;28;20212;-76
2023/05/29 05:05:33;;;;;;;0.10;0.10;;;;;;;;;;5058096;28;20255;-76
2023/05/29 05:07:59;;;;;;;0.10;0.10;;;;;;;;;;5077149;28;20319;-76
2023/05/29 05:10:27;;;;;;;0.20;0.20;;;;;;;;;;5057179;28;20358;-76
2023/05/29 05:12:53;;;;;;;0.10;0.10;;;;;;;;;;5077899;28;20213;-76
2023/05/29 05:15:19;;;;;;;0.10;0.10;;;;;;;;;;5056321;28;20460;-76
2023/05/29 05:17:46;;;;;;;0.10;0.10;;;;;;;;;;5078949;28;20413;-76
2023/05/29 05:20:13;;;;;;;0.10;0.10;;;;;;;;;;5055276;28;20226;-76
2023/05/29 05:22:39;;;;;;;0.10;0.10;;;;;;;;;;5079682;28;20392;-76
2023/05/29 05:25:06;;;;;;;0.10;0.10;;;;;;;;;;5064870;28;20204;-77
2023/05/29 05:27:34;;;;;;;0.10;0.10;;;;;;;;;;5053201;28;20554;-76
2023/05/29 05:30:00;;;;;;;0.00;0.00;;;;;;;;;;5064455;28;20206;-76
2023/05/29 05:32:27;;;;;;;0.10;0.10;;;;;;;;;;5069788;28;20302;-76
2023/05/29 05:34:53;;;;;;;0.00;0.00;;;;;;;;;;5064422;28;20272;-76
2023/05/29 05:37:22;;;;;;;0.10;0.10;;;;;;;;;;5069810;28;20256;-76
2023/05/29 05:39:49;;;;;;;1.17;1.17;;;;;;;;;;5064574;28;20232;-76
2023/05/29 05:42:15;;;;;;;0.37;0.37;;;;;;;;;;5069604;28;20318;-77
2023/05/29 05:44:43;;;;;;;0.10;0.10;;;;;;;;;;5064533;28;20205;-76
2023/05/29 05:47:09;;;;;;;0.00;0.00;;;;;;;;;;5069509;28;20465;-76
2023/05/29 05:49:36;;;;;;;0.10;0.10;;;;;;;;;;5064476;28;20207;-76
2023/05/29 05:52:02;;;;;;;0.10;0.10;;;;;;;;;;5068772;28;20314;-76
2023/05/29 05:54:28;;;;;;;0.00;0.00;;;;;;;;;;5064953;28;20240;-77
2023/05/29 05:56:55;;;;;;;0.10;0.10;;;;;;;;;;5067771;28;20320;-76
2023/05/29 05:59:21;;;;;;;0.10;0.10;;;;;;;;;;5065562;28;20223;-76
2023/05/29 06:01:49;;;;;;;0.10;0.10;;;;;;;;;;5066007;28;20255;-76
2023/05/29 06:04:15;;;;;;;0.10;0.10;;;;;;;;;;5067083;28;20272;-77
2023/05/29 06:06:42;;;;;;;0.10;0.10;;;;;;;;;;5065801;28;20300;-77
2023/05/29 06:09:09;;;;;;;0.10;0.10;;;;;;;;;;5067411;28;20210;-76
2023/05/29 06:11:35;;;;;;;0.60;0.60;;;;;;;;;;5064936;28;20433;-76
2023/05/29 06:14:01;;;;;;;0.10;0.10;;;;;;;;;;5068167;28;20211;-76
2023/05/29 06:16:28;;;;;;;0.60;0.60;;;;;;;;;;5063826;28;20261;-76
2023/05/29 06:18:56;;;;;;;0.10;0.10;;;;;;;;;;5068791;28;20276;-76
2023/05/29 06:21:22;;;;;;;0.10;0.10;;;;;;;;;;5063029;28;20263;-77
2023/05/29 06:23:48;;;;;;;0.10;0.10;;;;;;;;;;5069369;28;20267;-76
2023/05/29 06:26:15;;;;;;;0.10;0.10;;;;;;;;;;5062313;28;20243;-76
2023/05/29 06:28:42;;;;;;;0.10;0.10;;;;;;;;;;5070343;28;20414;-75
2023/05/29 06:31:08;;;;;;;0.10;0.10;;;;;;;;;;5061313;28;20450;-75
2023/05/29 06:33:34;;;;;;;0.10;0.10;;;;;;;;;;5071462;28;20269;-75
2023/05/29 06:36:02;;;;;;;0.10;0.10;;;;;;;;;;5060334;28;20446;-75
2023/05/29 06:38:29;;;;;;;0.20;0.20;;;;;;;;;;5071907;28;20529;-75
2023/05/29 06:40:55;;;;;;;0.00;0.00;;;;;;;;;;5059580;28;20546;-74
2023/05/29 06:43:21;;;;;;;0.00;0.00;;;;;;;;;;5072775;28;20327;-71
2023/05/29 06:45:48;;;;;;;0.00;0.00;;;;;;;;;;5058617;28;20242;-72
2023/05/29 06:48:14;;;;;;;0.23;0.23;;;;;;;;;;5073753;28;20212;-71
2023/05/29 06:50:40;;;;;;;0.10;0.10;;;;;;;;;;5057437;28;20267;-74
2023/05/29 06:53:08;;;;;;;0.10;0.10;;;;;;;;;;5074683;28;20203;-70
2023/05/29 06:55:34;;;;;;;0.10;0.10;;;;;;;;;;5056457;28;20306;-73
2023/05/29 06:58:01;;;;;;;0.10;0.10;;;;;;;;;;5075687;28;20201;-73
2023/05/29 07:00:28;;;;;;;0.00;0.00;;;;;;;;;;5055841;28;20250;-72
2023/05/29 07:02:54;;;;;;;0.07;0.07;;;;;;;;;;5076348;28;20546;-73
2023/05/29 07:05:21;;;;;;;0.00;0.00;;;;;;;;;;5054953;28;20230;-73
2023/05/29 07:07:47;;;;;;;0.10;0.10;;;;;;;;;;5077387;28;20466;-72
2023/05/29 07:10:15;;;;;;;0.10;0.10;;;;;;;;;;5054084;28;20443;-72
2023/05/29 07:12:41;;;;;;;0.10;0.10;;;;;;;;;;5078034;28;20219;-73
2023/05/29 07:15:08;;;;;;;3.50;3.20;;;;;;;;;;5053978;28;20275;-72
2023/05/29 07:17:34;;;;;;;0.00;0.00;;;;;;;;;;5078457;28;20246;-72
2023/05/29 07:20:01;;;;;;;0.03;0.03;;;;;;;;;;5063259;28;20238;-74
2023/05/29 07:22:27;;;;;;;0.10;0.10;;;;;;;;;;5067107;28;20308;-74
2023/05/29 07:24:54;;;;;;;0.10;0.10;;;;;;;;;;5063195;28;20212;-75
2023/05/29 07:27:22;;;;;;;0.10;0.10;;;;;;;;;;5068327;28;20250;-74
2023/05/29 07:29:48;;;;;;;0.00;0.00;;;;;;;;;;5062861;28;20417;-74
2023/05/29 07:32:15;;;;;;;0.00;0.00;;;;;;;;;;5068268;28;20492;-74
2023/05/29 07:34:41;;;;;;;0.00;0.00;;;;;;;;;;5062839;28;20274;-74
2023/05/29 07:37:08;;;;;;;0.00;0.00;;;;;;;;;;5068246;28;20261;-74
2023/05/29 07:39:35;;;;;;;0.00;0.00;;;;;;;;;;5063141;28;20236;-74
2023/05/29 07:42:02;;;;;;;0.10;0.10;;;;;;;;;;5067193;28;20246;-74
2023/05/29 07:44:29;;;;;;;0.00;0.00;;;;;;;;;;5063472;28;20207;-74
2023/05/29 07:46:56;;;;;;;0.10;0.10;;;;;;;;;;5066583;28;20302;-74
2023/05/29 07:49:22;;;;;;;0.10;0.10;;;;;;;;;;5065442;28;20276;-74
2023/05/29 07:51:48;;;;;;;0.10;0.10;;;;;;;;;;5069221;28;20433;-74
2023/05/29 07:54:17;;;;;;;0.10;0.10;;;;;;;;;;5069074;28;20201;-74
2023/05/29 07:56:45;;;;;;;0.10;0.10;;;;;;;;;;5068462;28;20264;-74
2023/05/29 07:59:12;;;;;;;0.10;0.10;;;;;;;;;;5069291;28;20549;-75
2023/05/29 08:01:40;;;;;;;0.10;0.10;;;;;;;;;;5067658;28;20310;-74
2023/05/29 08:04:06;;;;;;;0.10;0.10;;;;;;;;;;5069688;28;20238;-74
2023/05/29 08:06:33;;;;;;;0.10;0.10;;;;;;;;;;5066990;28;20240;-75
2023/05/29 08:09:00;;;;;;;0.10;0.10;;;;;;;;;;5070778;28;20423;-74
2023/05/29 08:11:26;;;;;;;0.10;0.10;;;;;;;;;;5066036;28;20271;-74
2023/05/29 08:13:53;;;;;;;0.10;0.10;;;;;;;;;;5071178;28;20273;-74
2023/05/29 08:16:19;;;;;;;0.00;0.00;;;;;;;;;;5065143;28;20244;-74
2023/05/29 08:18:47;;;;;;;0.00;0.00;;;;;;;;;;5072304;28;20244;-74
2023/05/29 08:21:13;;;;;;;0.00;0.00;;;;;;;;;;5064225;28;20309;-74
2023/05/29 08:23:40;;;;;;;0.10;0.10;;;;;;;;;;5072738;28;20236;-74
2023/05/29 08:26:06;;;;;;;0.03;0.03;;;;;;;;;;5063115;28;20270;-73
2023/05/29 08:28:33;;;;;;;0.10;0.10;;;;;;;;;;5073593;28;20206;-75
2023/05/29 08:30:59;;;;;;;0.10;0.10;;;;;;;;;;5062236;28;20577;-75
2023/05/29 08:33:25;;;;;;;0.05;0.05;;;;;;;;;;5074503;28;20241;-75
2023/05/29 08:35:53;;;;;;;0.05;0.05;;;;;;;;;;5061060;28;20315;-75
2023/05/29 08:38:20;;;;;;;0.20;0.20;;;;;;;;;;5075502;28;20452;-74
2023/05/29 08:40:47;;;;;;;0.10;0.10;;;;;;;;;;5060124;28;20246;-74
2023/05/29 08:43:16;;;;;;;0.00;0.00;;;;;;;;;;5075858;28;20233;-74
2023/05/29 08:45:43;;;;;;;0.00;0.00;;;;;;;;;;5059841;28;20241;-74
2023/05/29 08:48:10;;;;;;;0.10;0.10;;;;;;;;;;5076158;28;20213;-74
2023/05/29 08:50:36;;;;;;;0.00;0.00;;;;;;;;;;5058831;28;20241;-74
2023/05/29 08:53:04;;;;;;;0.00;0.00;;;;;;;;;;5077408;28;20219;-74
2023/05/29 08:55:31;;;;;;;0.10;0.10;;;;;;;;;;5058105;28;20247;-74
2023/05/29 08:57:58;;;;;;;0.10;0.10;;;;;;;;;;5077463;28;20212;-75
2023/05/29 09:00:28;;;;;;;0.10;0.10;;;;;;;;;;5056690;28;20205;-74
2023/05/29 09:02:55;;;;;;;0.10;0.10;;;;;;;;;;5078048;28;20595;-74
2023/05/29 09:05:21;;;;;;;0.10;0.10;;;;;;;;;;5056374;28;20226;-74
2023/05/29 09:07:49;;;;;;;0.08;0.08;;;;;;;;;;5078819;28;20390;-75
2023/05/29 09:10:17;;;;;;;0.00;0.00;;;;;;;;;;5055912;28;20207;-74
2023/05/29 09:12:43;;;;;;;0.00;0.00;;;;;;;;;;5079514;28;20419;-75
2023/05/29 09:15:17;;;;;;;0.00;0.00;;;;;;;;;;5055002;28;20374;-73
2023/05/29 09:17:43;;;;;;;0.03;0.03;;;;;;;;;;5079344;28;20383;-75
2023/05/29 09:20:15;;;;;;;0.00;0.00;;;;;;;;;;5055918;28;20450;-74
2023/05/29 09:22:43;;;;;;;0.10;0.10;;;;;;;;;;5079452;28;20309;-74
2023/05/29 09:25:09;;;;;;;0.10;0.10;;;;;;;;;;5054794;28;20241;-73
2023/05/29 09:27:40;;;;;;;0.00;0.00;;;;;;;;;;5079739;28;20209;-74
2023/05/29 09:30:10;;;;;;;0.00;0.00;;;;;;;;;;5064492;28;20285;-75
2023/05/29 09:32:36;;;;;;;0.00;0.00;;;;;;;;;;5053176;28;20467;-75
2023/05/29 09:35:03;;;;;;;0.05;0.05;;;;;;;;;;5064692;28;20437;-74
2023/05/29 09:37:30;;;;;;;0.10;0.10;;;;;;;;;;5069726;28;20260;-74
2023/05/29 09:39:56;;;;;;;0.00;0.00;;;;;;;;;;5064288;28;20207;-74
2023/05/29 09:42:23;;;;;;;0.00;0.00;;;;;;;;;;5069528;28;20244;-74
2023/05/29 09:44:52;;;;;;;0.00;0.00;;;;;;;;;;5064148;28;20218;-75
2023/05/29 09:47:19;;;;;;;0.10;0.10;;;;;;;;;;5069545;28;20264;-75
2023/05/29 09:49:46;;;;;;;0.10;0.10;;;;;;;;;;5064439;28;20451;-74
2023/05/29 09:52:15;;;;;;;0.00;0.00;;;;;;;;;;5069616;28;20249;-75
2023/05/29 09:54:42;;;;;;;0.00;0.00;;;;;;;;;;5064058;28;20203;-75
2023/05/29 09:57:08;;;;;;;0.10;0.10;;;;;;;;;;5069324;28;20245;-74
2023/05/29 09:59:36;;;;;;;0.00;0.00;;;;;;;;;;5063945;28;20306;-75
2023/05/29 10:02:06;;;;;;;0.10;0.10;;;;;;;;;;5068387;28;20259;-74
2023/05/29 10:04:33;;;;;;;0.00;0.00;;;;;;;;;;5064092;28;20215;-75
2023/05/29 10:07:01;;;;;;;0.00;0.00;;;;;;;;;;5068129;28;20242;-74
2023/05/29 10:09:28;;;;;;;0.00;0.00;;;;;;;;;;5062894;28;20507;-74
2023/05/29 10:11:57;;;;;;;0.00;0.00;;;;;;;;;;5066680;28;20497;-73
2023/05/29 10:14:27;;;;;;;0.10;0.10;;;;;;;;;;5064906;28;20203;-74
2023/05/29 10:16:55;;;;;;;0.00;0.00;;;;;;;;;;5066996;28;20276;-74
2023/05/29 10:19:26;;;;;;;0.00;0.00;;;;;;;;;;5065251;28;20207;-74
2023/05/29 10:21:55;;;;;;;0.10;0.10;;;;;;;;;;5066671;28;20242;-74
2023/05/29 10:24:22;;;;;;;0.00;0.00;;;;;;;;;;5065388;28;20256;-73
2023/05/29 10:26:50;;;;;;;0.00;0.00;;;;;;;;;;5066267;28;20274;-74
2023/05/29 10:29:19;;;;;;;0.10;0.10;;;;;;;;;;5065782;28;20262;-74
2023/05/29 10:31:51;;;;;;;0.00;0.00;;;;;;;;;;5065790;28;20247;-74
2023/05/29 10:34:22;;;;;;;0.10;0.10;;;;;;;;;;5065621;28;20264;-74
2023/05/29 10:36:55;;;;;;;0.00;0.00;;;;;;;;;;5066160;28;20246;-74
2023/05/29 10:39:21;;;;;;;0.00;0.00;;;;;;;;;;5065234;28;20255;-74
2023/05/29 10:41:48;;;;;;;0.00;0.00;;;;;;;;;;5065962;28;20258;-74
2023/05/29 10:44:39;;;;;;;0.10;0.10;;;;;;;;;;5065861;28;20228;-74
2023/05/29 10:47:06;;;;;;;0.00;0.00;;;;;;;;;;5068458;28;20314;-74
2023/05/29 10:49:33;;;;;;;0.00;0.00;;;;;;;;;;5063429;28;20211;-74
2023/05/29 10:52:01;;;;;;;0.00;0.00;;;;;;;;;;5067570;28;20559;-74
2023/05/29 10:54:30;;;;;;;0.00;0.00;;;;;;;;;;5064505;28;20269;-74
2023/05/29 10:56:57;;;;;;;0.55;0.55;;;;;;;;;;5067070;28;20554;-74
2023/05/29 10:59:28;;;;;;;0.00;0.00;;;;;;;;;;5064444;28;20224;-74
2023/05/29 11:01:54;;;;;;;0.00;0.00;;;;;;;;;;5066584;28;20247;-74
2023/05/29 11:04:29;;;;;;;0.00;0.00;;;;;;;;;;5065333;28;20235;-74
2023/05/29 11:06:55;;;;;;;0.00;0.00;;;;;;;;;;5067345;28;20254;-71
2023/05/29 11:09:30;;;;;;;0.00;0.00;;;;;;;;;;5065391;28;20208;-71
2023/05/29 11:12:24;;;;;;;0.10;0.10;;;;;;;;;;5067027;28;20311;-71
2023/05/29 11:14:55;;;;;;;0.00;0.00;;;;;;;;;;5063082;28;20188;-71
2023/05/29 11:17:31;;;;;;;0.10;0.10;;;;;;;;;;5068563;28;20293;-72
2023/05/29 11:19:57;;;;;;;0.00;0.00;;;;;;;;;;5063331;28;20246;-71
2023/05/29 11:22:26;;;;;;;0.05;0.05;;;;;;;;;;5068518;28;20266;-71
2023/05/29 11:24:57;;;;;;;0.05;0.05;;;;;;;;;;5066320;28;20290;-72
2023/05/29 11:27:24;;;;;;;0.00;0.00;;;;;;;;;;5072408;28;20239;-71
2023/05/29 11:29:53;;;;;;;0.03;0.03;;;;;;;;;;5066780;28;20212;-71
2023/05/29 11:32:22;;;;;;;0.20;0.20;;;;;;;;;;5072125;28;20656;-71
2023/05/29 11:34:48;;;;;;;0.00;0.00;;;;;;;;;;5066670;28;20271;-71
2023/05/29 11:37:15;;;;;;;0.00;0.00;;;;;;;;;;5072123;28;20302;-71
2023/05/29 11:39:42;;;;;;;0.10;0.10;;;;;;;;;;5067012;28;20396;-71
2023/05/29 11:42:09;;;;;;;0.00;0.00;;;;;;;;;;5072082;28;20253;-71
2023/05/29 11:44:36;;;;;;;0.00;0.00;;;;;;;;;;5066503;28;20224;-71
2023/05/29 11:47:03;;;;;;;0.00;0.00;;;;;;;;;;5071309;28;20524;-71
2023/05/29 11:49:30;;;;;;;0.00;0.00;;;;;;;;;;5067251;28;20204;-71
2023/05/29 11:52:06;;;;;;;0.00;0.00;;;;;;;;;;5070400;28;20298;-71
2023/05/29 11:54:33;;;;;;;0.00;0.00;;;;;;;;;;5066619;28;20449;-72
2023/05/29 11:57:00;;;;;;;0.08;0.08;;;;;;;;;;5070711;28;20500;-71
2023/05/29 11:59:30;;;;;;;0.00;0.00;;;;;;;;;;5067067;28;20223;-72
2023/05/29 12:01:56;;;;;;;0.00;0.00;;;;;;;;;;5069901;28;20255;-71
2023/05/29 12:04:23;;;;;;;2.30;0.63;;;;;;;;;;5067727;28;20294;-71
2023/05/29 12:06:49;;;;;;;0.00;0.00;;;;;;;;;;5069174;28;20250;-72
2023/05/29 12:09:26;;;;;;;0.00;0.00;;;;;;;;;;5068660;28;20424;-72
2023/05/29 12:11:52;;;;;;;0.00;0.00;;;;;;;;;;5069569;28;20238;-72
2023/05/29 12:14:19;;;;;;;0.10;0.10;;;;;;;;;;5067892;28;20228;-71
2023/05/29 12:16:47;;;;;;;0.10;0.10;;;;;;;;;;5068441;28;20281;-72
2023/05/29 12:19:13;;;;;;;0.00;0.00;;;;;;;;;;5068550;28;20322;-72
2023/05/29 12:21:42;;;;;;;0.00;0.00;;;;;;;;;;5067734;28;20262;-71
2023/05/29 12:24:08;;;;;;;0.00;0.00;;;;;;;;;;5069240;28;20291;-71
2023/05/29 12:26:35;;;;;;;0.10;0.10;;;;;;;;;;5067095;28;20582;-71
2023/05/29 12:29:03;;;;;;;0.00;0.00;;;;;;;;;;5070016;28;20219;-71
2023/05/29 12:31:30;;;;;;;0.00;0.00;;;;;;;;;;5066276;28;20474;-71
2023/05/29 12:34:00;;;;;;;0.00;0.00;;;;;;;;;;5070504;28;20235;-71
2023/05/29 12:36:27;;;;;;;0.10;0.10;;;;;;;;;;5064864;28;20258;-71
2023/05/29 12:38:53;;;;;;;0.00;0.00;;;;;;;;;;5071408;28;20204;-72
2023/05/29 12:41:24;;;;;;;0.08;0.08;;;;;;;;;;5064804;28;20442;-71
2023/05/29 12:43:50;;;;;;;0.10;0.10;;;;;;;;;;5071291;28;20287;-71
2023/05/29 12:46:17;;;;;;;0.00;0.00;;;;;;;;;;5064352;28;20253;-71
2023/05/29 12:48:43;;;;;;;0.75;0.75;;;;;;;;;;5072089;28;20365;-71
2023/05/29 12:51:11;;;;;;;0.00;0.00;;;;;;;;;;5063381;28;20473;-71
2023/05/29 12:53:37;;;;;;;0.00;0.00;;;;;;;;;;5072807;28;20208;-71
2023/05/29 12:56:04;;;;;;;0.00;0.00;;;;;;;;;;5062447;28;20310;-71
2023/05/29 12:58:30;;;;;;;0.00;0.00;;;;;;;;;;5073547;28;20480;-72
2023/05/29 13:00:57;;;;;;;0.00;0.00;;;;;;;;;;5061221;28;20239;-72
2023/05/29 13:03:24;;;;;;;0.00;0.00;;;;;;;;;;5074715;28;20212;-71
2023/05/29 13:05:50;;;;;;;0.00;0.00;;;;;;;;;;5060336;28;20246;-72
2023/05/29 13:08:18;;;;;;;0.00;0.00;;;;;;;;;;5074900;28;20242;-71
2023/05/29 13:10:44;;;;;;;0.00;0.00;;;;;;;;;;5059720;28;20327;-71
2023/05/29 13:13:11;;;;;;;0.00;0.00;;;;;;;;;;5075906;28;20238;-72
2023/05/29 13:15:40;;;;;;;0.00;0.00;;;;;;;;;;5058564;28;20246;-71
2023/05/29 13:18:06;;;;;;;0.10;0.10;;;;;;;;;;5076152;28;20195;-71
2023/05/29 13:20:33;;;;;;;0.08;0.08;;;;;;;;;;5057959;28;20285;-72
2023/05/29 13:22:59;;;;;;;0.00;0.00;;;;;;;;;;5076984;28;20279;-71
2023/05/29 13:25:28;;;;;;;0.38;0.38;;;;;;;;;;5056760;28;20262;-70
2023/05/29 13:27:55;;;;;;;0.00;0.00;;;;;;;;;;5077425;28;20216;-70
2023/05/29 13:30:22;;;;;;;0.00;0.00;;;;;;;;;;5056468;28;20388;-70
2023/05/29 13:32:48;;;;;;;0.00;0.00;;;;;;;;;;5078133;28;20192;-70
2023/05/29 13:35:15;;;;;;;0.00;0.00;;;;;;;;;;5055300;28;20228;-71
2023/05/29 13:37:43;;;;;;;0.00;0.00;;;;;;;;;;5079125;28;20404;-69
2023/05/29 13:40:10;;;;;;;0.00;0.00;;;;;;;;;;5054520;28;20210;-71
2023/05/29 13:42:37;;;;;;;0.00;0.00;;;;;;;;;;5079412;28;20204;-69
2023/05/29 13:45:06;;;;;;;0.00;0.00;;;;;;;;;;5064228;28;20258;-69
2023/05/29 13:47:32;;;;;;;0.00;0.00;;;;;;;;;;5052100;28;20216;-69
2023/05/29 13:49:58;;;;;;;0.00;0.00;;;;;;;;;;5064317;28;20242;-70
2023/05/29 13:52:25;;;;;;;0.00;0.00;;;;;;;;;;5069618;28;20489;-70
2023/05/29 13:54:52;;;;;;;0.10;0.10;;;;;;;;;;5064151;28;20207;-71
2023/05/29 13:57:18;;;;;;;0.00;0.00;;;;;;;;;;5069549;28;20262;-72
2023/05/29 13:59:46;;;;;;;0.00;0.00;;;;;;;;;;5064207;28;20255;-72
2023/05/29 14:02:12;;;;;;;0.00;0.00;;;;;;;;;;5069425;28;20310;-72
2023/05/29 14:04:39;;;;;;;0.10;0.10;;;;;;;;;;5063915;28;20234;-72
2023/05/29 14:07:06;;;;;;;0.00;0.00;;;;;;;;;;5069133;28;20302;-71
2023/05/29 14:09:32;;;;;;;0.00;0.00;;;;;;;;;;5064124;28;20208;-71
2023/05/29 14:11:59;;;;;;;0.00;0.00;;;;;;;;;;5068144;28;20504;-71
2023/05/29 14:14:26;;;;;;;0.10;0.10;;;;;;;;;;5065205;28;20503;-71
2023/05/29 14:16:54;;;;;;;0.00;0.00;;;;;;;;;;5067163;28;20321;-70
2023/05/29 14:19:21;;;;;;;0.10;0.10;;;;;;;;;;5065894;28;20392;-69
2023/05/29 14:21:47;;;;;;;0.00;0.00;;;;;;;;;;5066493;28;20310;-68
2023/05/29 14:24:15;;;;;;;0.00;0.00;;;;;;;;;;5066586;28;20210;-69
2023/05/29 14:26:43;;;;;;;1.55;1.50;;;;;;;;;;5065640;28;20239;-69
2023/05/29 14:29:10;;;;;;;0.20;0.20;;;;;;;;;;5066617;28;20216;-70
2023/05/29 14:31:36;;;;;;;0.00;0.00;;;;;;;;;;5064707;28;20243;-69
2023/05/29 14:34:04;;;;;;;0.00;0.00;;;;;;;;;;5067935;28;20232;-69
2023/05/29 14:36:30;;;;;;;0.00;0.00;;;;;;;;;;5064060;28;20249;-67
2023/05/29 14:38:57;;;;;;;0.22;0.22;;;;;;;;;;5068564;28;20204;-67
2023/05/29 14:41:24;;;;;;;0.22;0.22;;;;;;;;;;5062963;28;20262;-67
2023/05/29 14:43:51;;;;;;;0.38;0.38;;;;;;;;;;5069092;28;20239;-66